Time;durP1;ratioP1;P1;durP2;ratioP2;P2;SDS_P1;SDS_P2;PMS_P1;PMS_P2;Temp;Humidity;BMP_temperature;BMP_pressure;BME280_temperature;BME280_humidity;BME280_pressure;Samples;Min_cycle;Max_cycle;Signal;HPM_P1;HPM_P2
2023/12/05 00:01:01;;;;;;;1005.08;909.75;;;1.10;99.90;;;;;;6306324;22;20018;-81
2023/12/05 00:03:27;;;;;;;985.88;896.03;;;0.60;99.90;;;;;;6279182;22;20011;-81
2023/12/05 00:05:52;;;;;;;988.80;899.83;;;0.60;99.90;;;;;;6334603;22;20086;-80
2023/12/05 00:08:18;;;;;;;937.78;857.38;;;1.20;99.90;;;;;;6280420;22;20435;-80
2023/12/05 00:10:44;;;;;;;931.42;850.97;;;0.70;99.90;;;;;;6304883;22;20064;-81
2023/12/05 00:13:11;;;;;;;971.33;885.00;;;0.00;99.90;;;;;;6305486;22;20101;-81
2023/12/05 00:15:36;;;;;;;1006.13;912.75;;;-0.10;99.90;;;;;;6306009;22;20045;-81
2023/12/05 00:18:02;;;;;;;995.35;904.60;;;0.70;99.90;;;;;;6305452;22;20015;-81
2023/12/05 00:20:28;;;;;;;1020.40;924.30;;;-0.10;99.90;;;;;;6305284;22;20026;-81
2023/12/05 00:22:53;;;;;;;1036.18;936.53;;;0.60;99.90;;;;;;6306557;22;20446;-81
2023/12/05 00:25:19;;;;;;;998.97;906.55;;;0.10;99.90;;;;;;6332745;22;20438;-82
2023/12/05 00:27:45;;;;;;;958.40;874.47;;;1.00;99.90;;;;;;6304433;22;20509;-81
2023/12/05 00:30:11;;;;;;;969.20;884.53;;;0.90;99.90;;;;;;6334152;22;20026;-81
2023/12/05 00:32:37;;;;;;;995.05;903.55;;;-0.20;99.90;;;;;;6303816;22;20026;-81
2023/12/05 00:35:03;;;;;;;1070.38;960.25;;;0.50;99.90;;;;;;6306243;22;20011;-81
2023/12/05 00:37:29;;;;;;;1086.20;971.75;;;-0.20;99.90;;;;;;6279777;22;20502;-82
2023/12/05 00:39:54;;;;;;;960.03;875.60;;;0.90;99.90;;;;;;6333302;22;20049;-81
2023/12/05 00:42:20;;;;;;;1094.30;979.38;;;0.70;99.90;;;;;;6306031;22;20085;-81
2023/12/05 00:44:46;;;;;;;961.67;877.13;;;0.60;99.90;;;;;;6304257;22;20030;-81
2023/12/05 00:47:11;;;;;;;1052.97;948.20;;;0.90;99.90;;;;;;6305112;22;20022;-81
2023/12/05 00:49:37;;;;;;;978.20;890.17;;;0.50;99.90;;;;;;6279517;22;20094;-81
2023/12/05 00:52:03;;;;;;;1022.47;923.90;;;0.50;99.90;;;;;;6305665;22;20093;-81
2023/12/05 00:54:29;;;;;;;1100.93;986.20;;;-0.30;99.90;;;;;;6304483;22;20076;-81
2023/12/05 00:56:56;;;;;;;1038.93;939.78;;;0.00;99.90;;;;;;6305783;22;20084;-81
2023/12/05 00:59:21;;;;;;;989.65;899.58;;;0.10;99.90;;;;;;6331627;22;20011;-81
2023/12/05 01:01:48;;;;;;;975.67;888.17;;;0.50;99.90;;;;;;6279723;22;20181;-81
2023/12/05 01:04:13;;;;;;;1084.90;971.88;;;0.90;99.90;;;;;;6305481;22;20023;-81
2023/12/05 01:06:39;;;;;;;1002.33;910.80;;;0.00;99.90;;;;;;6304459;22;20559;-81
2023/12/05 01:09:06;;;;;;;1110.93;989.10;;;0.40;99.90;;;;;;6305267;22;20014;-81
2023/12/05 01:11:32;;;;;;;1041.85;942.80;;;0.90;99.90;;;;;;6305173;22;20023;-81
2023/12/05 01:13:58;;;;;;;1081.60;968.30;;;0.30;99.90;;;;;;6303638;22;20324;-82
2023/12/05 01:16:24;;;;;;;1109.93;988.53;;;0.60;99.90;;;;;;6305512;22;20056;-81
2023/12/05 01:18:49;;;;;;;1089.95;977.47;;;0.70;99.90;;;;;;6305123;22;20100;-81
2023/12/05 01:21:16;;;;;;;1086.80;972.97;;;0.70;99.90;;;;;;6304670;22;20053;-81
2023/12/05 01:23:42;;;;;;;1052.93;947.08;;;0.50;99.90;;;;;;6305245;22;20023;-81
2023/12/05 01:26:08;;;;;;;967.55;879.17;;;-0.20;99.90;;;;;;6305088;22;20014;-81
2023/12/05 01:28:33;;;;;;;976.03;889.60;;;-0.30;99.90;;;;;;6303434;22;20030;-80
2023/12/05 01:30:59;;;;;;;1092.95;976.80;;;0.00;99.90;;;;;;6305609;22;20018;-81
2023/12/05 01:33:25;;;;;;;1011.80;918.80;;;0.70;99.90;;;;;;6305441;22;20026;-81
2023/12/05 01:35:50;;;;;;;1107.72;987.85;;;-0.30;99.90;;;;;;6304326;22;20022;-81
2023/12/05 01:38:18;;;;;;;1012.25;917.65;;;0.20;99.90;;;;;;6305178;22;20054;-81
2023/12/05 01:40:44;;;;;;;1054.40;950.70;;;0.80;99.90;;;;;;6305583;22;20021;-80
2023/12/05 01:43:10;;;;;;;1096.40;980.60;;;0.40;99.90;;;;;;6303587;22;20424;-81
2023/12/05 01:45:36;;;;;;;1002.85;908.05;;;0.70;99.90;;;;;;6304656;22;20015;-80
2023/12/05 01:48:04;;;;;;;1065.35;955.50;;;0.70;99.90;;;;;;6305559;22;20026;-81
2023/12/05 01:50:31;;;;;;;1026.15;929.30;;;-0.30;99.90;;;;;;6304577;22;20023;-81
2023/12/05 01:53:03;;;;;;;997.70;904.40;;;-0.10;99.90;;;;;;6305390;22;20010;-80
2023/12/05 01:55:30;;;;;;;1057.15;952.83;;;-0.10;99.90;;;;;;6299193;22;20521;-81
2023/12/05 01:57:57;;;;;;;1000.97;906.05;;;0.10;99.90;;;;;;6300927;22;20440;-80
2023/12/05 02:00:23;;;;;;;1058.47;950.58;;;-0.10;99.90;;;;;;6300221;22;20015;-81
2023/12/05 02:02:50;;;;;;;1011.03;913.80;;;0.80;99.90;;;;;;6299054;22;20685;-81
2023/12/05 02:05:15;;;;;;;1067.07;960.35;;;0.90;99.90;;;;;;6300945;22;20077;-81
2023/12/05 02:07:41;;;;;;;948.92;865.55;;;0.00;99.90;;;;;;6299923;22;20016;-81
2023/12/05 02:10:09;;;;;;;1000.88;908.38;;;0.90;99.90;;;;;;6301517;22;20425;-81
2023/12/05 02:12:37;;;;;;;980.50;891.67;;;-0.30;99.90;;;;;;6298678;22;20414;-80
2023/12/05 02:15:04;;;;;;;1054.65;949.20;;;0.80;99.90;;;;;;6300604;22;20015;-81
2023/12/05 02:17:38;;;;;;;984.05;896.83;;;-0.30;99.90;;;;;;6298820;22;20026;-81
2023/12/05 02:20:28;;;;;;;1069.78;961.88;;;-0.30;99.90;;;;;;6300675;22;20023;-81
2023/12/05 02:23:01;;;;;;;1143.93;999.28;;;-0.30;99.90;;;;;;6274034;22;20027;-81
2023/12/05 02:25:45;;;;;;;974.00;887.10;;;-0.30;99.90;;;;;;6301133;22;20330;-81
2023/12/05 02:28:12;;;;;;;1119.00;991.05;;;-0.30;99.90;;;;;;6299410;22;20057;-81
2023/12/05 02:30:38;;;;;;;1087.07;971.90;;;0.00;99.90;;;;;;6273658;22;20058;-80
2023/12/05 02:33:03;;;;;;;978.75;889.63;;;0.50;99.90;;;;;;6301263;22;20012;-81
2023/12/05 02:35:30;;;;;;;1040.15;938.08;;;0.60;99.90;;;;;;6301338;22;20494;-81
2023/12/05 02:38:05;;;;;;;1021.78;926.22;;;0.50;99.90;;;;;;6299609;22;20073;-80
2023/12/05 02:40:41;;;;;;;1120.97;992.40;;;-0.10;99.90;;;;;;6301652;22;20023;-81
2023/12/05 02:43:11;;;;;;;988.70;898.13;;;1.00;99.90;;;;;;6300668;22;20064;-80
2023/12/05 02:45:39;;;;;;;962.35;875.75;;;-0.30;99.90;;;;;;6300517;22;20116;-80
2023/12/05 02:48:07;;;;;;;1074.28;962.05;;;0.00;99.90;;;;;;6300253;22;20023;-80
2023/12/05 02:50:33;;;;;;;1001.10;909.95;;;0.40;99.90;;;;;;6302901;22;20023;-81
2023/12/05 02:52:59;;;;;;;967.20;880.60;;;0.40;99.90;;;;;;6301080;22;20347;-81
2023/12/05 02:55:24;;;;;;;1050.15;945.72;;;0.20;99.90;;;;;;6301145;22;20042;-80
2023/12/05 02:57:50;;;;;;;1050.50;946.88;;;-0.30;99.90;;;;;;6299982;22;20057;-80
2023/12/05 03:00:16;;;;;;;1052.00;946.10;;;0.60;99.90;;;;;;6300617;22;20102;-81
2023/12/05 03:02:42;;;;;;;1013.83;917.05;;;-0.30;99.90;;;;;;6301002;22;20114;-81
2023/12/05 03:05:08;;;;;;;1033.82;935.20;;;0.40;99.90;;;;;;6301918;22;20502;-81
2023/12/05 03:07:33;;;;;;;1108.68;989.83;;;-0.30;99.90;;;;;;6301665;22;20014;-81
2023/12/05 03:09:59;;;;;;;1088.13;974.05;;;-0.30;99.90;;;;;;6301859;22;20038;-81
2023/12/05 03:12:25;;;;;;;1033.85;937.30;;;-0.10;99.90;;;;;;6300785;22;20019;-81
2023/12/05 03:14:51;;;;;;;975.83;887.47;;;0.40;99.90;;;;;;6300551;22;20086;-81
2023/12/05 03:17:16;;;;;;;1124.88;993.05;;;0.80;99.90;;;;;;6301300;22;20019;-80
2023/12/05 03:19:42;;;;;;;1067.55;958.92;;;0.00;99.90;;;;;;6275053;22;20022;-81
2023/12/05 03:22:08;;;;;;;1028.10;931.65;;;0.60;99.90;;;;;;6302637;22;20465;-81
2023/12/05 03:24:33;;;;;;;1001.72;909.95;;;0.40;99.90;;;;;;6300930;22;20019;-81
2023/12/05 03:26:59;;;;;;;972.88;884.53;;;0.00;99.90;;;;;;6300724;22;20134;-81
2023/12/05 03:29:24;;;;;;;1132.40;995.03;;;0.30;99.90;;;;;;6300770;22;20023;-81
2023/12/05 03:31:50;;;;;;;1102.93;981.33;;;0.60;99.90;;;;;;6300480;22;20043;-81
2023/12/05 03:34:16;;;;;;;1111.75;990.75;;;1.00;99.90;;;;;;6302510;22;20026;-80
2023/12/05 03:36:41;;;;;;;1088.15;976.40;;;-0.40;99.90;;;;;;6302560;22;20094;-80
2023/12/05 03:39:08;;;;;;;1110.85;989.30;;;0.50;99.90;;;;;;6301212;22;20090;-81
2023/12/05 03:41:33;;;;;;;1070.35;961.38;;;0.80;99.90;;;;;;6300545;22;20023;-81
2023/12/05 03:43:59;;;;;;;1009.30;914.80;;;0.70;99.90;;;;;;6299903;22;20015;-80
2023/12/05 03:46:25;;;;;;;1000.72;907.97;;;0.50;99.90;;;;;;6301598;22;20049;-81
2023/12/05 03:48:50;;;;;;;986.10;896.00;;;0.30;99.90;;;;;;6301697;22;20015;-81
2023/12/05 03:51:16;;;;;;;1035.88;937.45;;;-0.40;99.90;;;;;;6303088;22;20015;-80
2023/12/05 03:53:42;;;;;;;1016.95;919.35;;;0.40;99.90;;;;;;6300720;22;20026;-81
2023/12/05 03:56:08;;;;;;;992.72;902.75;;;-0.40;99.90;;;;;;6321800;22;20050;-80
2023/12/05 03:58:34;;;;;;;1000.35;906.17;;;-0.40;99.90;;;;;;6304852;22;20089;-81
2023/12/05 04:00:59;;;;;;;969.58;883.35;;;0.90;99.90;;;;;;6305859;22;20023;-80
2023/12/05 04:03:25;;;;;;;1069.68;961.22;;;0.30;99.90;;;;;;6304914;22;20399;-81
2023/12/05 04:05:51;;;;;;;1117.25;987.28;;;-0.10;99.90;;;;;;6306304;22;20080;-81
2023/12/05 04:08:16;;;;;;;1062.63;954.50;;;0.10;99.90;;;;;;6305616;22;20014;-81
2023/12/05 04:10:42;;;;;;;1072.88;963.78;;;0.50;99.90;;;;;;6305087;22;20022;-81
2023/12/05 04:13:08;;;;;;;989.25;899.85;;;0.50;99.90;;;;;;6305009;22;20015;-80
2023/12/05 04:15:33;;;;;;;1069.97;962.05;;;0.50;99.90;;;;;;6305315;22;20129;-80
2023/12/05 04:17:59;;;;;;;974.50;887.28;;;0.10;99.90;;;;;;6333453;22;20080;-80
2023/12/05 04:20:25;;;;;;;1043.53;939.05;;;0.70;99.90;;;;;;6305637;22;20049;-80
2023/12/05 04:22:50;;;;;;;1002.70;910.15;;;0.20;99.90;;;;;;6305802;22;20023;-81
2023/12/05 04:25:16;;;;;;;1013.55;919.17;;;0.80;99.90;;;;;;6333386;22;20300;-80
2023/12/05 04:27:42;;;;;;;1066.63;957.63;;;0.10;99.90;;;;;;6332078;22;20143;-81
2023/12/05 04:30:08;;;;;;;1139.97;992.65;;;0.80;99.90;;;;;;6306213;22;20752;-81
2023/12/05 04:32:34;;;;;;;1088.40;975.05;;;-0.30;99.90;;;;;;6303974;22;20022;-81
2023/12/05 04:34:59;;;;;;;1016.28;919.20;;;0.30;99.90;;;;;;6333903;22;20082;-81
2023/12/05 04:37:25;;;;;;;976.20;886.75;;;0.80;99.90;;;;;;6279222;22;20552;-81
2023/12/05 04:39:51;;;;;;;1052.78;946.50;;;-0.30;99.90;;;;;;6333310;22;20019;-81
2023/12/05 04:42:17;;;;;;;1110.43;989.25;;;0.10;99.90;;;;;;6305300;22;20023;-80
2023/12/05 04:44:42;;;;;;;1023.00;927.00;;;0.40;99.90;;;;;;6303729;22;20097;-81
2023/12/05 04:47:09;;;;;;;1144.28;997.30;;;-0.30;99.90;;;;;;6305981;22;20049;-81
2023/12/05 04:49:34;;;;;;;1100.65;985.65;;;0.90;99.90;;;;;;6333233;22;20427;-81
2023/12/05 04:52:00;;;;;;;1094.20;978.08;;;0.60;99.90;;;;;;6332744;22;20093;-81
2023/12/05 04:54:26;;;;;;;1094.60;981.47;;;0.60;99.90;;;;;;6333473;22;20011;-81
2023/12/05 04:56:52;;;;;;;1107.93;989.35;;;0.40;99.90;;;;;;6332945;22;20023;-81
2023/12/05 04:59:17;;;;;;;1048.57;943.60;;;-0.30;99.90;;;;;;6303762;22;20156;-81
2023/12/05 05:01:43;;;;;;;1066.28;958.33;;;0.10;99.90;;;;;;6305756;22;20019;-81
2023/12/05 05:04:09;;;;;;;1094.55;977.10;;;0.90;99.90;;;;;;6305095;22;20057;-81
2023/12/05 05:06:35;;;;;;;1004.65;912.55;;;0.60;99.90;;;;;;6304799;22;20022;-81
2023/12/05 05:09:00;;;;;;;980.85;893.38;;;0.80;99.90;;;;;;6305017;22;20015;-81
2023/12/05 05:11:26;;;;;;;975.45;888.03;;;0.70;99.90;;;;;;6333253;22;20018;-80
2023/12/05 05:13:52;;;;;;;1030.28;930.50;;;0.90;99.90;;;;;;6303522;22;20036;-81
2023/12/05 05:16:17;;;;;;;1071.40;963.63;;;0.60;99.90;;;;;;6333345;22;20569;-81
2023/12/05 05:18:43;;;;;;;1043.43;942.60;;;0.40;99.90;;;;;;6305551;22;20015;-81
2023/12/05 05:21:11;;;;;;;976.25;889.33;;;0.10;99.90;;;;;;6279096;22;20018;-81
2023/12/05 05:23:38;;;;;;;1041.20;938.13;;;0.40;99.90;;;;;;6333256;22;20042;-81
2023/12/05 05:26:04;;;;;;;1034.07;934.63;;;0.50;99.90;;;;;;6334144;22;20019;-81
2023/12/05 05:28:29;;;;;;;1116.88;991.58;;;0.30;99.90;;;;;;6303009;22;20327;-80
2023/12/05 05:30:55;;;;;;;1010.15;915.80;;;0.60;99.90;;;;;;6333720;22;20021;-81
2023/12/05 05:33:21;;;;;;;1056.70;950.78;;;-0.30;99.90;;;;;;6304859;22;20023;-80
2023/12/05 05:35:47;;;;;;;1112.38;988.67;;;0.80;99.90;;;;;;6332052;22;20328;-81
2023/12/05 05:38:13;;;;;;;1088.97;973.90;;;0.50;99.90;;;;;;6305419;22;20019;-81
2023/12/05 05:40:40;;;;;;;1080.75;970.42;;;0.40;99.90;;;;;;6303958;22;20057;-81
2023/12/05 05:43:06;;;;;;;1014.03;918.50;;;0.10;99.90;;;;;;6304200;22;20021;-81
2023/12/05 05:45:31;;;;;;;974.75;887.30;;;0.60;99.90;;;;;;6304403;22;20023;-81
2023/12/05 05:47:57;;;;;;;1096.18;981.20;;;-0.20;99.90;;;;;;6304408;22;20026;-81
2023/12/05 05:50:23;;;;;;;1093.55;978.05;;;0.00;99.90;;;;;;6305899;22;20029;-81
2023/12/05 05:52:48;;;;;;;1122.25;994.60;;;0.40;99.90;;;;;;6304398;22;20094;-81
2023/12/05 05:55:14;;;;;;;1030.05;930.88;;;-0.20;99.90;;;;;;6304194;22;20022;-81
2023/12/05 05:57:40;;;;;;;1103.55;985.75;;;-0.30;99.90;;;;;;6303584;22;20023;-81
2023/12/05 06:00:08;;;;;;;1069.03;960.40;;;0.10;99.90;;;;;;6305038;22;20019;-81
2023/12/05 06:02:34;;;;;;;1102.50;985.25;;;-0.30;99.90;;;;;;6304183;22;20011;-81
2023/12/05 06:04:59;;;;;;;992.05;901.85;;;0.40;99.90;;;;;;6279517;22;20477;-81
2023/12/05 06:07:25;;;;;;;1091.47;976.67;;;0.50;99.90;;;;;;6305200;22;20577;-81
2023/12/05 06:09:51;;;;;;;1128.22;998.13;;;0.60;99.90;;;;;;6303924;22;20023;-81
2023/12/05 06:12:17;;;;;;;1065.65;959.78;;;0.70;99.90;;;;;;6304798;22;20014;-81
2023/12/05 06:14:43;;;;;;;1068.18;960.35;;;-0.30;99.90;;;;;;6278535;22;20085;-81
2023/12/05 06:17:09;;;;;;;1047.30;944.92;;;0.80;99.90;;;;;;6304031;22;20777;-81
2023/12/05 06:19:35;;;;;;;1110.85;989.60;;;0.40;99.90;;;;;;6333444;22;20046;-81
2023/12/05 06:22:00;;;;;;;999.45;906.78;;;-0.30;99.90;;;;;;6304493;22;20014;-81
2023/12/05 06:24:27;;;;;;;1103.68;984.92;;;0.40;99.90;;;;;;6306676;22;20022;-81
2023/12/05 06:26:52;;;;;;;1067.22;956.55;;;0.20;99.90;;;;;;6281705;22;20064;-81
2023/12/05 06:29:18;;;;;;;1000.05;907.08;;;0.40;99.90;;;;;;6306135;22;20394;-81
2023/12/05 06:31:47;;;;;;;1100.25;981.80;;;0.80;99.90;;;;;;6305888;22;20029;-81
2023/12/05 06:34:13;;;;;;;1016.65;921.83;;;0.50;99.90;;;;;;6306983;22;20084;-81
2023/12/05 06:36:38;;;;;;;964.17;878.58;;;0.70;99.90;;;;;;6307093;22;20045;-81
2023/12/05 06:39:08;;;;;;;1063.03;956.40;;;0.10;99.90;;;;;;6306255;22;20015;-81
2023/12/05 06:41:35;;;;;;;1062.50;956.47;;;-0.20;99.90;;;;;;6306819;22;20443;-81
2023/12/05 06:44:02;;;;;;;1096.60;977.95;;;0.80;99.90;;;;;;6279474;22;20144;-81
2023/12/05 06:46:28;;;;;;;992.40;902.17;;;0.10;99.90;;;;;;6281104;22;20097;-81
2023/12/05 06:48:54;;;;;;;1028.32;928.33;;;0.60;99.90;;;;;;6307044;22;20046;-82
2023/12/05 06:51:19;;;;;;;1103.00;983.22;;;0.60;99.90;;;;;;6305476;22;20015;-81
2023/12/05 06:53:46;;;;;;;1167.07;999.90;;;0.80;99.90;;;;;;6306768;22;20811;-81
2023/12/05 06:56:14;;;;;;;1102.18;983.35;;;0.70;99.90;;;;;;6306091;22;20454;-81
2023/12/05 06:58:40;;;;;;;1076.68;971.72;;;0.70;99.90;;;;;;6278929;22;20064;-81
2023/12/05 07:01:06;;;;;;;1128.10;996.13;;;0.70;99.90;;;;;;6306731;22;20060;-81
2023/12/05 07:03:32;;;;;;;1055.88;950.45;;;-0.40;99.90;;;;;;6306983;22;20030;-81
2023/12/05 07:05:58;;;;;;;1013.05;919.17;;;-0.40;99.90;;;;;;6280113;22;20011;-82
2023/12/05 07:08:23;;;;;;;1042.30;940.75;;;-0.30;99.90;;;;;;6306581;22;20435;-82
2023/12/05 07:10:49;;;;;;;1048.35;944.90;;;-0.10;99.90;;;;;;6280585;22;20011;-81
2023/12/05 07:13:15;;;;;;;977.63;889.38;;;-0.40;99.90;;;;;;6304870;22;20021;-81
2023/12/05 07:15:42;;;;;;;990.45;899.92;;;0.80;99.90;;;;;;6306539;22;20089;-81
2023/12/05 07:18:08;;;;;;;983.28;894.53;;;-0.40;99.90;;;;;;6306560;22;20018;-81
2023/12/05 07:20:34;;;;;;;1043.38;941.42;;;0.80;99.90;;;;;;6305024;22;20014;-82
2023/12/05 07:23:00;;;;;;;1074.78;964.65;;;-0.40;99.90;;;;;;6306721;22;20102;-82
2023/12/05 07:25:26;;;;;;;1074.15;965.50;;;0.70;99.90;;;;;;6334053;22;20018;-82
2023/12/05 07:27:51;;;;;;;1114.88;989.38;;;-0.40;99.90;;;;;;6305374;22;20565;-81
2023/12/05 07:30:17;;;;;;;1118.20;988.53;;;-0.20;99.90;;;;;;6281071;22;20021;-81
2023/12/05 07:32:43;;;;;;;1116.03;993.38;;;0.30;99.90;;;;;;6305868;22;20060;-81
2023/12/05 07:35:08;;;;;;;1105.80;986.95;;;-0.40;99.90;;;;;;6305921;22;20015;-81
2023/12/05 07:37:34;;;;;;;1085.97;971.85;;;0.50;99.90;;;;;;6305549;22;20366;-82
2023/12/05 07:40:00;;;;;;;1092.05;974.72;;;0.20;99.90;;;;;;6280809;22;20022;-81
2023/12/05 07:42:26;;;;;;;993.25;903.50;;;-0.40;99.90;;;;;;6332679;22;20086;-81
2023/12/05 07:44:51;;;;;;;1087.22;973.60;;;0.10;99.90;;;;;;6305473;22;20616;-81
2023/12/05 07:47:17;;;;;;;1077.35;963.55;;;-0.30;99.90;;;;;;6333529;22;20030;-81
2023/12/05 07:49:45;;;;;;;1057.90;951.65;;;0.80;99.90;;;;;;6280433;22;20311;-82
2023/12/05 07:52:10;;;;;;;972.63;885.35;;;0.30;99.90;;;;;;6305853;22;20383;-82
2023/12/05 07:54:36;;;;;;;965.25;878.78;;;0.90;99.90;;;;;;6279631;22;20019;-81
2023/12/05 07:57:12;;;;;;;958.08;874.17;;;0.90;99.90;;;;;;6279747;22;20018;-83
2023/12/05 08:00:14;;;;;;;;;;;;;;;;;;;;;
2023/12/05 08:02:40;;;;;;;1094.13;977.20;;;0.10;99.90;;;;;;6288625;22;20434;-83
2023/12/05 08:05:06;;;;;;;1109.10;987.80;;;-0.30;99.90;;;;;;6280204;22;20102;-82
2023/12/05 08:07:32;;;;;;;1069.55;959.38;;;-0.30;99.90;;;;;;6306291;22;20027;-82
2023/12/05 08:09:58;;;;;;;987.13;896.40;;;0.80;99.90;;;;;;6305456;22;20023;-83
2023/12/05 08:12:23;;;;;;;1061.78;953.08;;;-0.20;99.90;;;;;;6305474;22;20023;-83
2023/12/05 08:14:49;;;;;;;1024.22;928.00;;;-0.20;99.90;;;;;;6304862;22;20030;-83
2023/12/05 08:17:15;;;;;;;1010.78;912.88;;;-0.30;99.90;;;;;;6303761;22;20098;-83
2023/12/05 08:19:41;;;;;;;993.15;901.42;;;0.70;99.90;;;;;;6305311;22;20064;-83
2023/12/05 08:22:06;;;;;;;1006.92;911.60;;;0.80;99.90;;;;;;6305196;22;20499;-83
2023/12/05 08:24:32;;;;;;;1019.75;924.97;;;0.80;99.90;;;;;;6304342;22;20101;-83
2023/12/05 08:26:58;;;;;;;1020.22;920.22;;;0.70;99.90;;;;;;6305732;22;20019;-82
2023/12/05 08:29:24;;;;;;;969.08;881.92;;;-0.20;99.90;;;;;;6303443;22;20022;-82
2023/12/05 08:31:50;;;;;;;891.47;816.92;;;0.70;99.90;;;;;;6278588;22;20026;-82
2023/12/05 08:34:16;;;;;;;1005.65;912.15;;;0.40;99.90;;;;;;6332971;22;20099;-82
2023/12/05 08:36:44;;;;;;;991.17;898.42;;;1.10;99.90;;;;;;6304231;22;20828;-82
2023/12/05 08:39:12;;;;;;;951.20;867.47;;;-0.10;99.90;;;;;;6305973;22;20015;-81
2023/12/05 08:41:38;;;;;;;948.05;865.28;;;-0.10;99.90;;;;;;6305089;22;20377;-83
2023/12/05 08:44:03;;;;;;;956.38;868.92;;;0.10;99.90;;;;;;6303836;22;20011;-82
2023/12/05 08:46:29;;;;;;;913.13;835.28;;;-0.10;99.90;;;;;;6304236;22;20030;-82
2023/12/05 08:48:55;;;;;;;859.35;788.90;;;1.00;99.90;;;;;;6333764;22;20588;-82
2023/12/05 08:51:20;;;;;;;911.10;833.72;;;0.80;99.90;;;;;;6304516;22;20443;-82
2023/12/05 08:53:46;;;;;;;931.65;851.47;;;0.70;99.90;;;;;;6332723;22;20022;-82
2023/12/05 08:56:12;;;;;;;1004.17;909.75;;;0.10;99.90;;;;;;6331605;22;20030;-83
2023/12/05 08:58:38;;;;;;;917.25;841.05;;;0.60;99.90;;;;;;6302593;22;20011;-82
2023/12/05 09:01:04;;;;;;;963.67;875.63;;;0.80;99.90;;;;;;6279536;22;20054;-82
2023/12/05 09:03:30;;;;;;;945.40;862.67;;;0.00;99.90;;;;;;6305129;22;20011;-82
2023/12/05 09:05:56;;;;;;;882.92;811.42;;;0.00;99.90;;;;;;6303998;22;20014;-83
2023/12/05 09:08:22;;;;;;;920.63;842.22;;;0.80;99.90;;;;;;6305382;22;20393;-83
2023/12/05 09:10:48;;;;;;;996.20;903.85;;;1.00;99.90;;;;;;6304887;22;20022;-83
2023/12/05 09:13:15;;;;;;;864.10;792.90;;;1.10;99.90;;;;;;6277453;22;20014;-83
2023/12/05 09:15:41;;;;;;;864.92;793.92;;;0.10;99.90;;;;;;6305068;22;20019;-82
2023/12/05 09:18:06;;;;;;;914.10;834.75;;;0.10;99.90;;;;;;6305043;22;20015;-82
2023/12/05 09:20:32;;;;;;;915.85;838.13;;;1.00;99.90;;;;;;6304317;22;20027;-82
2023/12/05 09:22:58;;;;;;;929.70;848.15;;;0.10;99.90;;;;;;6304760;22;20092;-82
2023/12/05 09:25:23;;;;;;;849.72;781.33;;;0.20;99.90;;;;;;6305543;22;20026;-82
2023/12/05 09:27:49;;;;;;;858.35;788.45;;;1.00;99.90;;;;;;6302906;22;20408;-82
2023/12/05 09:30:15;;;;;;;884.42;811.42;;;0.70;99.90;;;;;;6305308;22;20090;-82
2023/12/05 09:32:41;;;;;;;855.83;786.72;;;0.70;99.90;;;;;;6303612;22;20021;-82
2023/12/05 09:35:07;;;;;;;864.25;794.45;;;0.60;99.90;;;;;;6304796;22;20051;-82
2023/12/05 09:37:32;;;;;;;893.13;819.17;;;0.20;99.90;;;;;;6333188;22;20347;-82
2023/12/05 09:39:59;;;;;;;888.80;815.15;;;1.10;99.90;;;;;;6304468;22;20513;-82
2023/12/05 09:42:25;;;;;;;873.85;803.55;;;0.80;99.90;;;;;;6304473;22;20111;-82
2023/12/05 09:44:52;;;;;;;910.63;834.60;;;0.40;99.90;;;;;;6278798;22;20018;-82
2023/12/05 09:47:20;;;;;;;870.13;798.13;;;0.70;99.90;;;;;;6304339;22;20320;-82
2023/12/05 09:49:46;;;;;;;878.45;806.70;;;1.00;99.90;;;;;;6304669;22;20371;-82
2023/12/05 09:52:12;;;;;;;914.10;838.85;;;1.00;99.90;;;;;;6304770;22;20408;-82
2023/12/05 09:54:43;;;;;;;946.58;864.45;;;1.50;99.90;;;;;;6303832;22;20346;-82
2023/12/05 09:57:12;;;;;;;875.00;804.13;;;0.80;99.90;;;;;;6303980;22;20029;-82
2023/12/05 09:59:38;;;;;;;911.65;834.58;;;0.90;99.90;;;;;;6278583;22;20079;-82
2023/12/05 10:02:05;;;;;;;880.92;807.72;;;0.50;99.90;;;;;;6304260;22;20102;-81
2023/12/05 10:04:39;;;;;;;901.50;824.58;;;1.10;99.90;;;;;;6332787;22;20026;-82
2023/12/05 10:07:05;;;;;;;921.83;842.10;;;1.30;99.90;;;;;;6304230;22;20025;-82
2023/12/05 10:09:32;;;;;;;887.85;814.35;;;1.00;99.90;;;;;;6303458;22;20086;-82
2023/12/05 10:11:58;;;;;;;866.65;795.45;;;0.90;99.90;;;;;;6304789;22;20014;-82
2023/12/05 10:14:24;;;;;;;916.17;837.10;;;1.00;99.90;;;;;;6303601;22;20018;-82
2023/12/05 10:16:51;;;;;;;897.22;823.00;;;1.20;99.90;;;;;;6303778;22;20029;-82
2023/12/05 10:19:18;;;;;;;896.67;820.63;;;0.60;99.90;;;;;;6304572;22;20054;-82
2023/12/05 10:21:44;;;;;;;853.20;785.17;;;1.20;99.90;;;;;;6304514;22;20019;-82
2023/12/05 10:24:10;;;;;;;849.50;782.17;;;1.20;99.90;;;;;;6303933;22;20021;-82
2023/12/05 10:26:44;;;;;;;871.72;801.60;;;0.70;99.90;;;;;;6304711;22;20060;-82
2023/12/05 10:29:10;;;;;;;867.67;795.25;;;0.80;99.90;;;;;;6276991;22;20063;-82
2023/12/05 10:31:36;;;;;;;883.78;812.03;;;1.20;99.90;;;;;;6331044;22;20433;-82
2023/12/05 10:34:05;;;;;;;869.78;797.60;;;1.40;99.90;;;;;;6304818;22;20007;-82
2023/12/05 10:36:31;;;;;;;916.67;837.97;;;1.00;99.90;;;;;;6303848;22;20019;-83
2023/12/05 10:38:57;;;;;;;860.55;791.60;;;1.50;99.90;;;;;;6305112;22;20038;-82
2023/12/05 10:41:23;;;;;;;875.70;802.58;;;1.90;99.90;;;;;;6278596;22;20113;-82
2023/12/05 10:43:50;;;;;;;814.35;750.08;;;0.90;99.90;;;;;;6302741;22;20367;-82
2023/12/05 10:46:16;;;;;;;844.75;774.92;;;0.90;99.90;;;;;;6304406;22;20029;-82
2023/12/05 10:48:44;;;;;;;813.55;748.22;;;0.90;99.90;;;;;;6304193;22;20046;-82
2023/12/05 10:51:10;;;;;;;863.28;793.65;;;1.50;99.90;;;;;;6304217;22;20023;-82
2023/12/05 10:53:36;;;;;;;820.15;756.17;;;1.00;99.90;;;;;;6303884;22;20014;-82
2023/12/05 10:56:14;;;;;;;806.72;744.30;;;1.70;99.90;;;;;;6299593;22;20645;-82
2023/12/05 10:58:41;;;;;;;744.90;687.75;;;0.90;99.90;;;;;;6297352;22;20448;-82
2023/12/05 11:01:10;;;;;;;734.00;677.83;;;0.90;99.90;;;;;;6299245;22;20026;-82
2023/12/05 11:03:41;;;;;;;834.22;767.95;;;1.40;99.90;;;;;;6299188;22;20026;-82
2023/12/05 11:06:08;;;;;;;783.40;723.05;;;1.50;99.90;;;;;;6298418;22;20026;-82
2023/12/05 11:08:36;;;;;;;799.15;736.08;;;0.80;99.90;;;;;;6299519;22;20015;-82
2023/12/05 11:11:03;;;;;;;820.47;755.35;;;1.60;99.90;;;;;;6301070;22;20019;-83
2023/12/05 11:13:32;;;;;;;793.65;732.60;;;0.80;99.90;;;;;;6273596;22;20014;-83
2023/12/05 11:16:09;;;;;;;841.28;773.08;;;1.40;99.90;;;;;;6301056;22;20436;-83
2023/12/05 11:18:37;;;;;;;821.38;756.50;;;0.80;99.90;;;;;;6274588;22;20019;-83
2023/12/05 11:21:24;;;;;;;867.00;795.38;;;1.40;99.90;;;;;;6275475;22;20117;-84
2023/12/05 11:24:16;;;;;;;823.15;757.80;;;0.80;99.90;;;;;;6275392;22;20076;-83
2023/12/05 11:26:55;;;;;;;846.88;777.78;;;0.80;99.90;;;;;;6300045;22;20041;-83
2023/12/05 11:29:57;;;;;;;814.60;750.50;;;0.80;99.90;;;;;;6302147;22;20023;-84
2023/12/05 11:32:45;;;;;;;831.42;764.50;;;0.80;99.90;;;;;;6300430;22;20118;-83
2023/12/05 11:35:31;;;;;;;844.58;775.75;;;0.70;99.90;;;;;;6301616;22;20019;-83
2023/12/05 11:38:06;;;;;;;817.55;753.90;;;1.10;99.90;;;;;;6301491;22;20007;-83
2023/12/05 11:40:32;;;;;;;833.63;766.53;;;1.00;99.90;;;;;;6300478;22;20023;-83
2023/12/05 11:43:04;;;;;;;801.67;739.17;;;1.10;99.90;;;;;;6299854;22;20026;-83
2023/12/05 11:45:30;;;;;;;866.17;794.30;;;1.60;99.90;;;;;;6275907;22;20023;-84
2023/12/05 11:47:58;;;;;;;895.72;819.40;;;0.70;99.90;;;;;;6299534;22;20141;-84
2023/12/05 11:50:24;;;;;;;869.67;797.25;;;1.40;99.90;;;;;;6301550;22;20047;-83
2023/12/05 11:52:50;;;;;;;887.00;813.17;;;1.50;99.90;;;;;;6300943;22;20019;-83
2023/12/05 11:55:16;;;;;;;884.75;811.40;;;1.50;99.90;;;;;;6274562;22;20016;-83
2023/12/05 11:57:42;;;;;;;870.28;800.47;;;0.70;99.90;;;;;;6299591;22;20059;-83
2023/12/05 12:00:10;;;;;;;873.45;802.28;;;1.20;99.90;;;;;;6301273;22;20015;-86
2023/12/05 12:02:42;;;;;;;822.67;757.22;;;0.80;99.90;;;;;;6274018;22;20102;-83
2023/12/05 12:05:10;;;;;;;836.27;769.50;;;0.70;99.90;;;;;;6301153;22;20339;-84
2023/12/05 12:07:52;;;;;;;825.95;760.05;;;1.30;99.90;;;;;;6299942;22;20019;-83
2023/12/05 12:10:19;;;;;;;795.03;733.13;;;0.70;99.90;;;;;;6301629;22;20453;-83